Phoenix, AZ (85082)

6:49 PM MST on September 30, 2014 (GMT -0700)
AZCC | Change Station
CLOSE
Current Station
Personal Weather Station
Location: Phoenix, AZ
Elevation: 1270 ft
Nearby Weather Stations

Elev 1270 ft 33.48 °N, 111.95 °W | Updated 2 seconds ago

Partly Cloudy
Partly Cloudy
76.0 °F
Feels Like 78 °F
N
0.0
Wind Variable Wind from SW
Gusts 0.0 mph

Today
High -- | Low -- °F
--% Chance of Precip.
Yesterday
High -- | Low -- °F
Precip. -- in
6:21 AM 6:13 PM
Waxing Crescent, 42% visible
Pressure 29.74 in
Visibility 10.0 miles
Clouds Few 25000 ft
Heat Index 78 °F
Dew Point 48 °F
Humidity 37%
Rainfall 0.00 in
Snow Depth 0 in , 0 in , 2 in
UV 0 out of 12
Pollen 6.10 out of 12
PM2.5 Moderate
Flu Activity Not available.
METAR KPHX 010051Z 23006KT 10SM FEW250 30/03 A2974

More Conditions Fewer Conditions

Pressure 29.74 in
Visibility 10.0 miles
Clouds Few 25000 ft
Heat Index 78 °F
Dew Point 48 °F
Humidity 37%
Rainfall 0.00 in
Snow Depth 0 in , 0 in , 2 in
UV 0 out of 12
Pollen 6.10 out of 12
PM2.5 Moderate
Flu Activity Not available.
METAR KPHX 010051Z 23006KT 10SM FEW250 30/03 A2974

More Conditions Fewer Conditions

10-Day Weather Forecast

Almanac

Astronomy

Sep. 30, 2014 Rise Set
Actual Time 6:21 AM MST 6:13 PM MST
Civil Twilight 5:56 AM MST 6:38 PM MST
Nautical Twilight 5:28 AM MST 7:07 PM MST
Astronomical Twilight 4:59 AM MST 7:36 PM MST
Moon 12:19 PM MST (9/30) 11:00 PM MST (9/30)
Length of Visible Light 12h 41m
Length of Day
11h 51m
Tomorrow will be 2m 3s shorter.
Waxing Crescent, 42% of the Moon is Illuminated
Today
Waxing Crescent
Oct 1
First Quarter
Oct 8
Full
Oct 15
Last Quarter
Oct 23
New

Today's Extremes

State Highs State Lows

Community

WunderPhotos

Upload Photos

1,757,821 photos uploaded!

Nearby

Air Quality

  Air Quality AQ Index Pollutant
Yesterday Moderate
OZONE
Yesterday Good
PM10
Current Moderate
PM2.5
Tuesday Moderate
OZONE
Tuesday Good
PM10
Tuesday Good
CO
Wednesday Moderate
OZONE
Wednesday Good
PM10
Wednesday Good
CO
Thursday Moderate
OZONE
Thursday Good
PM10
Thursday Good
CO

Snow Depth

Station Depth Elevation
Workman Creek 1 in 6900 ft
White Horse Lake 0 in 7180 ft
Snowslide Canyon 0 in 9730 ft
Beaver Head 2 in 7990 ft

Earthquake Activity

City Distance Mag. Time & Date
No recent earthquake activity has been reported nearby.
Minimum magnitude displayed is 2.5.

Coastal Water Temperatures

Place Temperature
No Stations Reporting

Nearby Weather Stations